sensor_id;sensor_type;location;lat;lon;timestamp;P1;durP1;ratioP1;P2;durP2;ratioP2
25163;SDS011;13440;50.860;13.662;2022-11-09T00:01:23;11.98;;;8.88;;
25163;SDS011;13440;50.860;13.662;2022-11-09T00:03:53;11.35;;;8.18;;
25163;SDS011;13440;50.860;13.662;2022-11-09T00:06:18;10.80;;;7.97;;
25163;SDS011;13440;50.860;13.662;2022-11-09T00:08:44;13.02;;;8.23;;
25163;SDS011;13440;50.860;13.662;2022-11-09T00:11:09;14.88;;;9.13;;
25163;SDS011;13440;50.860;13.662;2022-11-09T00:13:36;14.27;;;8.70;;
25163;SDS011;13440;50.860;13.662;2022-11-09T00:16:01;11.70;;;8.55;;
25163;SDS011;13440;50.860;13.662;2022-11-09T00:18:27;12.63;;;7.68;;
25163;SDS011;13440;50.860;13.662;2022-11-09T00:20:52;12.20;;;8.35;;
25163;SDS011;13440;50.860;13.662;2022-11-09T00:23:17;12.32;;;8.40;;
25163;SDS011;13440;50.860;13.662;2022-11-09T00:25:43;13.65;;;8.30;;
25163;SDS011;13440;50.860;13.662;2022-11-09T00:28:08;10.82;;;7.93;;
25163;SDS011;13440;50.860;13.662;2022-11-09T00:30:33;13.98;;;8.60;;
25163;SDS011;13440;50.860;13.662;2022-11-09T00:32:59;12.63;;;8.00;;
25163;SDS011;13440;50.860;13.662;2022-11-09T00:35:24;12.63;;;7.82;;
25163;SDS011;13440;50.860;13.662;2022-11-09T00:37:49;10.60;;;7.65;;
25163;SDS011;13440;50.860;13.662;2022-11-09T00:40:15;11.00;;;7.78;;
25163;SDS011;13440;50.860;13.662;2022-11-09T00:42:40;13.10;;;8.35;;
25163;SDS011;13440;50.860;13.662;2022-11-09T00:45:05;14.38;;;8.40;;
25163;SDS011;13440;50.860;13.662;2022-11-09T00:47:31;11.82;;;7.53;;
25163;SDS011;13440;50.860;13.662;2022-11-09T00:49:56;11.80;;;7.95;;
25163;SDS011;13440;50.860;13.662;2022-11-09T00:52:22;12.32;;;8.00;;
25163;SDS011;13440;50.860;13.662;2022-11-09T00:54:47;11.95;;;7.88;;
25163;SDS011;13440;50.860;13.662;2022-11-09T00:57:12;12.35;;;7.10;;
25163;SDS011;13440;50.860;13.662;2022-11-09T00:59:41;12.07;;;8.23;;
25163;SDS011;13440;50.860;13.662;2022-11-09T01:02:07;10.45;;;7.60;;
25163;SDS011;13440;50.860;13.662;2022-11-09T01:04:32;11.90;;;8.32;;
25163;SDS011;13440;50.860;13.662;2022-11-09T01:06:58;12.05;;;8.20;;
25163;SDS011;13440;50.860;13.662;2022-11-09T01:09:23;11.57;;;6.97;;
25163;SDS011;13440;50.860;13.662;2022-11-09T01:11:48;10.77;;;7.57;;
25163;SDS011;13440;50.860;13.662;2022-11-09T01:14:13;10.68;;;7.20;;
25163;SDS011;13440;50.860;13.662;2022-11-09T01:16:39;12.15;;;7.05;;
25163;SDS011;13440;50.860;13.662;2022-11-09T01:19:04;10.05;;;6.75;;
25163;SDS011;13440;50.860;13.662;2022-11-09T01:21:29;9.10;;;6.68;;
25163;SDS011;13440;50.860;13.662;2022-11-09T01:23:57;8.60;;;6.38;;
25163;SDS011;13440;50.860;13.662;2022-11-09T01:26:25;10.57;;;6.68;;
25163;SDS011;13440;50.860;13.662;2022-11-09T01:28:51;9.77;;;6.40;;
25163;SDS011;13440;50.860;13.662;2022-11-09T01:31:16;9.73;;;5.97;;
25163;SDS011;13440;50.860;13.662;2022-11-09T01:33:42;10.48;;;6.10;;
25163;SDS011;13440;50.860;13.662;2022-11-09T01:36:12;8.93;;;5.65;;
25163;SDS011;13440;50.860;13.662;2022-11-09T01:38:38;9.23;;;5.95;;
25163;SDS011;13440;50.860;13.662;2022-11-09T01:41:04;8.77;;;5.82;;
25163;SDS011;13440;50.860;13.662;2022-11-09T01:43:31;7.97;;;5.65;;
25163;SDS011;13440;50.860;13.662;2022-11-09T01:46:04;6.53;;;5.10;;
25163;SDS011;13440;50.860;13.662;2022-11-09T01:48:38;8.38;;;5.78;;
25163;SDS011;13440;50.860;13.662;2022-11-09T01:51:15;8.68;;;5.10;;
25163;SDS011;13440;50.860;13.662;2022-11-09T01:53:42;8.80;;;5.32;;
25163;SDS011;13440;50.860;13.662;2022-11-09T01:56:10;6.78;;;5.00;;
25163;SDS011;13440;50.860;13.662;2022-11-09T01:58:42;6.93;;;4.70;;
25163;SDS011;13440;50.860;13.662;2022-11-09T02:01:09;6.63;;;4.72;;
25163;SDS011;13440;50.860;13.662;2022-11-09T02:03:39;8.07;;;4.85;;
25163;SDS011;13440;50.860;13.662;2022-11-09T02:06:05;8.45;;;4.40;;
25163;SDS011;13440;50.860;13.662;2022-11-09T02:08:32;7.78;;;4.65;;
25163;SDS011;13440;50.860;13.662;2022-11-09T02:11:11;6.95;;;4.68;;
25163;SDS011;13440;50.860;13.662;2022-11-09T02:13:37;7.47;;;4.65;;
25163;SDS011;13440;50.860;13.662;2022-11-09T02:16:07;7.50;;;4.30;;
25163;SDS011;13440;50.860;13.662;2022-11-09T02:18:33;6.90;;;4.15;;
25163;SDS011;13440;50.860;13.662;2022-11-09T02:21:00;8.50;;;4.25;;
25163;SDS011;13440;50.860;13.662;2022-11-09T02:23:25;5.38;;;4.20;;
25163;SDS011;13440;50.860;13.662;2022-11-09T02:25:53;6.10;;;3.85;;
25163;SDS011;13440;50.860;13.662;2022-11-09T02:28:20;6.63;;;4.22;;
25163;SDS011;13440;50.860;13.662;2022-11-09T02:30:47;5.90;;;4.38;;
25163;SDS011;13440;50.860;13.662;2022-11-09T02:33:13;5.70;;;3.80;;
25163;SDS011;13440;50.860;13.662;2022-11-09T02:35:38;5.50;;;4.32;;
25163;SDS011;13440;50.860;13.662;2022-11-09T02:38:05;6.13;;;3.97;;
25163;SDS011;13440;50.860;13.662;2022-11-09T02:40:31;6.13;;;4.30;;
25163;SDS011;13440;50.860;13.662;2022-11-09T02:42:59;6.10;;;3.92;;
25163;SDS011;13440;50.860;13.662;2022-11-09T02:45:24;9.00;;;4.30;;
25163;SDS011;13440;50.860;13.662;2022-11-09T02:47:50;5.55;;;4.47;;
25163;SDS011;13440;50.860;13.662;2022-11-09T02:50:15;5.32;;;4.30;;
25163;SDS011;13440;50.860;13.662;2022-11-09T02:52:41;6.20;;;4.30;;
25163;SDS011;13440;50.860;13.662;2022-11-09T02:55:06;7.07;;;4.38;;
25163;SDS011;13440;50.860;13.662;2022-11-09T02:57:32;7.75;;;4.28;;
25163;SDS011;13440;50.860;13.662;2022-11-09T02:59:58;5.03;;;3.83;;
25163;SDS011;13440;50.860;13.662;2022-11-09T03:02:24;7.07;;;4.45;;
25163;SDS011;13440;50.860;13.662;2022-11-09T03:04:50;5.65;;;4.15;;
25163;SDS011;13440;50.860;13.662;2022-11-09T03:07:16;6.18;;;4.38;;
25163;SDS011;13440;50.860;13.662;2022-11-09T03:09:41;6.82;;;4.18;;
25163;SDS011;13440;50.860;13.662;2022-11-09T03:12:08;6.03;;;4.00;;
25163;SDS011;13440;50.860;13.662;2022-11-09T03:15:06;5.78;;;4.00;;
25163;SDS011;13440;50.860;13.662;2022-11-09T03:17:32;5.88;;;4.00;;
25163;SDS011;13440;50.860;13.662;2022-11-09T03:19:58;6.93;;;4.25;;
25163;SDS011;13440;50.860;13.662;2022-11-09T03:22:25;5.25;;;4.00;;
25163;SDS011;13440;50.860;13.662;2022-11-09T03:24:51;8.10;;;4.35;;
25163;SDS011;13440;50.860;13.662;2022-11-09T03:27:16;7.47;;;4.28;;
25163;SDS011;13440;50.860;13.662;2022-11-09T03:29:42;6.55;;;4.10;;
25163;SDS011;13440;50.860;13.662;2022-11-09T03:32:08;8.00;;;4.57;;
25163;SDS011;13440;50.860;13.662;2022-11-09T03:34:34;7.25;;;4.80;;
25163;SDS011;13440;50.860;13.662;2022-11-09T03:36:59;7.32;;;4.32;;
25163;SDS011;13440;50.860;13.662;2022-11-09T03:39:25;7.80;;;5.00;;
25163;SDS011;13440;50.860;13.662;2022-11-09T03:41:50;6.60;;;4.30;;
25163;SDS011;13440;50.860;13.662;2022-11-09T03:44:15;7.13;;;4.28;;
25163;SDS011;13440;50.860;13.662;2022-11-09T03:46:40;4.95;;;4.30;;
25163;SDS011;13440;50.860;13.662;2022-11-09T03:49:06;7.57;;;4.82;;
25163;SDS011;13440;50.860;13.662;2022-11-09T03:51:31;7.50;;;4.63;;
25163;SDS011;13440;50.860;13.662;2022-11-09T03:53:56;9.10;;;4.88;;
25163;SDS011;13440;50.860;13.662;2022-11-09T03:56:22;6.00;;;4.85;;
25163;SDS011;13440;50.860;13.662;2022-11-09T03:58:47;7.20;;;5.13;;
25163;SDS011;13440;50.860;13.662;2022-11-09T04:01:13;9.40;;;5.65;;
25163;SDS011;13440;50.860;13.662;2022-11-09T04:03:38;8.73;;;5.90;;
25163;SDS011;13440;50.860;13.662;2022-11-09T04:06:03;8.88;;;5.82;;
25163;SDS011;13440;50.860;13.662;2022-11-09T04:08:29;8.55;;;6.20;;
25163;SDS011;13440;50.860;13.662;2022-11-09T04:10:54;9.63;;;6.45;;
25163;SDS011;13440;50.860;13.662;2022-11-09T04:13:19;11.48;;;6.78;;
25163;SDS011;13440;50.860;13.662;2022-11-09T04:15:44;9.85;;;6.30;;
25163;SDS011;13440;50.860;13.662;2022-11-09T04:18:10;9.07;;;6.63;;
25163;SDS011;13440;50.860;13.662;2022-11-09T04:20:36;9.60;;;6.47;;
25163;SDS011;13440;50.860;13.662;2022-11-09T04:23:03;9.65;;;6.28;;
25163;SDS011;13440;50.860;13.662;2022-11-09T04:25:30;9.00;;;6.43;;
25163;SDS011;13440;50.860;13.662;2022-11-09T04:27:57;9.45;;;5.95;;
25163;SDS011;13440;50.860;13.662;2022-11-09T04:30:23;9.48;;;6.30;;
25163;SDS011;13440;50.860;13.662;2022-11-09T04:32:48;10.77;;;7.22;;
25163;SDS011;13440;50.860;13.662;2022-11-09T04:35:13;9.43;;;6.88;;
25163;SDS011;13440;50.860;13.662;2022-11-09T04:37:39;10.20;;;6.95;;
25163;SDS011;13440;50.860;13.662;2022-11-09T04:40:04;10.43;;;6.93;;
25163;SDS011;13440;50.860;13.662;2022-11-09T04:42:30;9.93;;;6.97;;
25163;SDS011;13440;50.860;13.662;2022-11-09T04:44:55;9.77;;;6.80;;
25163;SDS011;13440;50.860;13.662;2022-11-09T04:47:21;11.85;;;7.05;;
25163;SDS011;13440;50.860;13.662;2022-11-09T04:49:46;9.65;;;7.30;;
25163;SDS011;13440;50.860;13.662;2022-11-09T04:52:11;11.43;;;7.28;;
25163;SDS011;13440;50.860;13.662;2022-11-09T04:54:36;10.30;;;7.28;;
25163;SDS011;13440;50.860;13.662;2022-11-09T04:57:02;8.90;;;6.55;;
25163;SDS011;13440;50.860;13.662;2022-11-09T04:59:27;9.75;;;6.43;;
25163;SDS011;13440;50.860;13.662;2022-11-09T05:01:52;8.20;;;6.57;;
25163;SDS011;13440;50.860;13.662;2022-11-09T05:04:17;10.55;;;7.18;;
25163;SDS011;13440;50.860;13.662;2022-11-09T05:06:43;8.80;;;6.53;;
25163;SDS011;13440;50.860;13.662;2022-11-09T05:09:08;8.50;;;6.13;;
25163;SDS011;13440;50.860;13.662;2022-11-09T05:11:34;10.13;;;6.50;;
25163;SDS011;13440;50.860;13.662;2022-11-09T05:14:00;9.10;;;6.60;;
25163;SDS011;13440;50.860;13.662;2022-11-09T05:16:25;9.85;;;6.85;;
25163;SDS011;13440;50.860;13.662;2022-11-09T05:18:50;10.23;;;7.13;;
25163;SDS011;13440;50.860;13.662;2022-11-09T05:21:16;8.45;;;5.85;;
25163;SDS011;13440;50.860;13.662;2022-11-09T05:23:41;9.30;;;6.00;;
25163;SDS011;13440;50.860;13.662;2022-11-09T05:26:35;8.48;;;5.93;;
25163;SDS011;13440;50.860;13.662;2022-11-09T05:29:02;7.28;;;5.28;;
25163;SDS011;13440;50.860;13.662;2022-11-09T05:31:27;10.60;;;6.03;;
25163;SDS011;13440;50.860;13.662;2022-11-09T05:33:53;8.55;;;5.10;;
25163;SDS011;13440;50.860;13.662;2022-11-09T05:36:19;7.72;;;5.00;;
25163;SDS011;13440;50.860;13.662;2022-11-09T05:38:44;6.50;;;5.05;;
25163;SDS011;13440;50.860;13.662;2022-11-09T05:41:10;9.05;;;5.80;;
25163;SDS011;13440;50.860;13.662;2022-11-09T05:43:35;6.93;;;4.90;;
25163;SDS011;13440;50.860;13.662;2022-11-09T05:46:01;8.18;;;4.95;;
25163;SDS011;13440;50.860;13.662;2022-11-09T05:48:26;6.65;;;5.43;;
25163;SDS011;13440;50.860;13.662;2022-11-09T05:50:51;8.38;;;5.25;;
25163;SDS011;13440;50.860;13.662;2022-11-09T05:53:21;31.10;;;13.82;;
25163;SDS011;13440;50.860;13.662;2022-11-09T05:55:46;37.08;;;21.67;;
25163;SDS011;13440;50.860;13.662;2022-11-09T05:58:11;42.03;;;25.13;;
25163;SDS011;13440;50.860;13.662;2022-11-09T06:00:36;6.30;;;5.00;;
25163;SDS011;13440;50.860;13.662;2022-11-09T06:03:02;9.52;;;5.38;;
25163;SDS011;13440;50.860;13.662;2022-11-09T06:05:28;7.22;;;5.28;;
25163;SDS011;13440;50.860;13.662;2022-11-09T06:07:54;7.55;;;5.55;;
25163;SDS011;13440;50.860;13.662;2022-11-09T06:10:19;10.15;;;6.20;;
25163;SDS011;13440;50.860;13.662;2022-11-09T06:12:48;8.23;;;5.55;;
25163;SDS011;13440;50.860;13.662;2022-11-09T06:15:14;10.32;;;6.75;;
25163;SDS011;13440;50.860;13.662;2022-11-09T06:17:39;7.25;;;5.40;;
25163;SDS011;13440;50.860;13.662;2022-11-09T06:20:04;8.05;;;6.22;;
25163;SDS011;13440;50.860;13.662;2022-11-09T06:22:30;7.40;;;5.60;;
25163;SDS011;13440;50.860;13.662;2022-11-09T06:24:55;8.43;;;5.90;;
25163;SDS011;13440;50.860;13.662;2022-11-09T06:27:20;7.38;;;5.25;;
25163;SDS011;13440;50.860;13.662;2022-11-09T06:29:45;7.25;;;5.20;;
25163;SDS011;13440;50.860;13.662;2022-11-09T06:32:11;6.00;;;4.90;;
25163;SDS011;13440;50.860;13.662;2022-11-09T06:34:36;9.40;;;6.53;;
25163;SDS011;13440;50.860;13.662;2022-11-09T06:37:01;8.30;;;5.60;;
25163;SDS011;13440;50.860;13.662;2022-11-09T06:39:26;7.75;;;5.60;;
25163;SDS011;13440;50.860;13.662;2022-11-09T06:41:52;8.20;;;5.90;;
25163;SDS011;13440;50.860;13.662;2022-11-09T06:44:17;11.07;;;6.63;;
25163;SDS011;13440;50.860;13.662;2022-11-09T06:46:42;8.93;;;6.15;;
25163;SDS011;13440;50.860;13.662;2022-11-09T06:49:08;8.82;;;6.65;;
25163;SDS011;13440;50.860;13.662;2022-11-09T06:51:33;9.15;;;7.20;;
25163;SDS011;13440;50.860;13.662;2022-11-09T06:53:58;11.70;;;7.70;;
25163;SDS011;13440;50.860;13.662;2022-11-09T06:56:23;12.52;;;8.23;;
25163;SDS011;13440;50.860;13.662;2022-11-09T06:58:49;11.55;;;8.30;;
25163;SDS011;13440;50.860;13.662;2022-11-09T07:01:15;11.98;;;8.68;;
25163;SDS011;13440;50.860;13.662;2022-11-09T07:03:41;10.02;;;7.88;;
25163;SDS011;13440;50.860;13.662;2022-11-09T07:06:07;12.90;;;9.30;;
25163;SDS011;13440;50.860;13.662;2022-11-09T07:08:33;14.18;;;10.05;;
25163;SDS011;13440;50.860;13.662;2022-11-09T07:11:12;14.32;;;9.95;;
25163;SDS011;13440;50.860;13.662;2022-11-09T07:13:38;13.65;;;10.10;;
25163;SDS011;13440;50.860;13.662;2022-11-09T07:16:03;13.35;;;9.52;;
25163;SDS011;13440;50.860;13.662;2022-11-09T07:18:29;15.15;;;10.07;;
25163;SDS011;13440;50.860;13.662;2022-11-09T07:20:54;13.27;;;9.98;;
25163;SDS011;13440;50.860;13.662;2022-11-09T07:23:19;14.27;;;10.13;;
25163;SDS011;13440;50.860;13.662;2022-11-09T07:25:45;14.32;;;10.43;;
25163;SDS011;13440;50.860;13.662;2022-11-09T07:28:10;14.57;;;9.82;;
25163;SDS011;13440;50.860;13.662;2022-11-09T07:30:36;12.85;;;9.43;;
25163;SDS011;13440;50.860;13.662;2022-11-09T07:33:02;14.57;;;9.73;;
25163;SDS011;13440;50.860;13.662;2022-11-09T07:35:27;13.50;;;9.93;;
25163;SDS011;13440;50.860;13.662;2022-11-09T07:37:52;12.27;;;8.80;;
25163;SDS011;13440;50.860;13.662;2022-11-09T07:40:18;13.32;;;9.27;;
25163;SDS011;13440;50.860;13.662;2022-11-09T07:42:43;13.15;;;9.52;;
25163;SDS011;13440;50.860;13.662;2022-11-09T07:45:09;12.95;;;9.50;;
25163;SDS011;13440;50.860;13.662;2022-11-09T07:47:34;12.23;;;9.38;;
25163;SDS011;13440;50.860;13.662;2022-11-09T07:49:59;14.77;;;9.77;;
25163;SDS011;13440;50.860;13.662;2022-11-09T07:52:24;14.40;;;9.00;;
25163;SDS011;13440;50.860;13.662;2022-11-09T07:54:50;13.95;;;9.30;;
25163;SDS011;13440;50.860;13.662;2022-11-09T07:57:15;10.50;;;7.72;;
25163;SDS011;13440;50.860;13.662;2022-11-09T07:59:40;11.82;;;8.05;;
25163;SDS011;13440;50.860;13.662;2022-11-09T08:02:07;10.80;;;8.13;;
25163;SDS011;13440;50.860;13.662;2022-11-09T08:04:32;11.02;;;8.30;;
25163;SDS011;13440;50.860;13.662;2022-11-09T08:06:57;11.93;;;7.82;;
25163;SDS011;13440;50.860;13.662;2022-11-09T08:09:23;11.20;;;8.00;;
25163;SDS011;13440;50.860;13.662;2022-11-09T08:11:48;10.77;;;8.13;;
25163;SDS011;13440;50.860;13.662;2022-11-09T08:14:13;11.25;;;7.63;;
25163;SDS011;13440;50.860;13.662;2022-11-09T08:16:38;10.57;;;7.80;;
25163;SDS011;13440;50.860;13.662;2022-11-09T08:19:04;9.50;;;7.45;;
25163;SDS011;13440;50.860;13.662;2022-11-09T08:21:29;9.85;;;7.30;;
25163;SDS011;13440;50.860;13.662;2022-11-09T08:23:54;11.75;;;6.82;;
25163;SDS011;13440;50.860;13.662;2022-11-09T08:26:20;10.93;;;7.78;;
25163;SDS011;13440;50.860;13.662;2022-11-09T08:28:45;9.85;;;6.68;;
25163;SDS011;13440;50.860;13.662;2022-11-09T08:31:10;9.60;;;6.75;;
25163;SDS011;13440;50.860;13.662;2022-11-09T08:33:37;8.35;;;6.13;;
25163;SDS011;13440;50.860;13.662;2022-11-09T08:36:09;8.98;;;6.90;;
25163;SDS011;13440;50.860;13.662;2022-11-09T08:38:35;8.40;;;6.32;;
25163;SDS011;13440;50.860;13.662;2022-11-09T08:41:00;9.35;;;6.68;;
25163;SDS011;13440;50.860;13.662;2022-11-09T08:43:25;9.77;;;6.78;;
25163;SDS011;13440;50.860;13.662;2022-11-09T08:45:50;10.43;;;6.65;;
25163;SDS011;13440;50.860;13.662;2022-11-09T08:48:16;10.40;;;6.45;;
25163;SDS011;13440;50.860;13.662;2022-11-09T08:50:41;9.32;;;6.72;;
25163;SDS011;13440;50.860;13.662;2022-11-09T08:53:06;9.82;;;6.93;;
25163;SDS011;13440;50.860;13.662;2022-11-09T08:55:32;8.18;;;6.40;;
25163;SDS011;13440;50.860;13.662;2022-11-09T08:57:58;9.63;;;7.05;;
25163;SDS011;13440;50.860;13.662;2022-11-09T09:00:23;9.52;;;6.88;;
25163;SDS011;13440;50.860;13.662;2022-11-09T09:02:49;9.55;;;7.25;;
25163;SDS011;13440;50.860;13.662;2022-11-09T09:05:14;10.73;;;7.50;;
25163;SDS011;13440;50.860;13.662;2022-11-09T09:07:40;10.48;;;6.85;;
25163;SDS011;13440;50.860;13.662;2022-11-09T09:10:05;10.07;;;7.03;;
25163;SDS011;13440;50.860;13.662;2022-11-09T09:12:30;8.75;;;7.07;;
25163;SDS011;13440;50.860;13.662;2022-11-09T09:14:55;10.23;;;6.78;;
25163;SDS011;13440;50.860;13.662;2022-11-09T09:17:21;10.55;;;6.55;;
25163;SDS011;13440;50.860;13.662;2022-11-09T09:19:46;11.75;;;6.97;;
25163;SDS011;13440;50.860;13.662;2022-11-09T09:22:11;10.25;;;6.13;;
25163;SDS011;13440;50.860;13.662;2022-11-09T09:24:37;10.48;;;6.80;;
25163;SDS011;13440;50.860;13.662;2022-11-09T09:27:02;10.10;;;6.50;;
25163;SDS011;13440;50.860;13.662;2022-11-09T09:29:27;10.75;;;6.70;;
25163;SDS011;13440;50.860;13.662;2022-11-09T09:31:53;8.95;;;6.07;;
25163;SDS011;13440;50.860;13.662;2022-11-09T09:34:18;8.45;;;6.30;;
25163;SDS011;13440;50.860;13.662;2022-11-09T09:36:43;8.98;;;6.45;;
25163;SDS011;13440;50.860;13.662;2022-11-09T09:39:08;10.07;;;6.38;;
25163;SDS011;13440;50.860;13.662;2022-11-09T09:44:07;9.63;;;6.30;;
25163;SDS011;13440;50.860;13.662;2022-11-09T09:46:39;12.20;;;7.47;;
25163;SDS011;13440;50.860;13.662;2022-11-09T09:49:12;8.98;;;5.82;;
25163;SDS011;13440;50.860;13.662;2022-11-09T09:51:43;8.45;;;5.85;;
25163;SDS011;13440;50.860;13.662;2022-11-09T09:54:20;9.98;;;6.85;;
25163;SDS011;13440;50.860;13.662;2022-11-09T09:56:47;9.07;;;6.00;;
25163;SDS011;13440;50.860;13.662;2022-11-09T09:59:21;8.63;;;5.72;;
25163;SDS011;13440;50.860;13.662;2022-11-09T10:01:48;9.60;;;6.22;;
25163;SDS011;13440;50.860;13.662;2022-11-09T10:04:16;10.15;;;6.22;;
25163;SDS011;13440;50.860;13.662;2022-11-09T10:06:51;9.80;;;5.82;;
25163;SDS011;13440;50.860;13.662;2022-11-09T10:09:35;9.55;;;5.88;;
25163;SDS011;13440;50.860;13.662;2022-11-09T10:12:13;8.18;;;5.85;;
25163;SDS011;13440;50.860;13.662;2022-11-09T10:14:56;8.18;;;5.80;;
25163;SDS011;13440;50.860;13.662;2022-11-09T10:17:29;12.35;;;5.55;;
25163;SDS011;13440;50.860;13.662;2022-11-09T10:24:51;9.00;;;5.70;;
25163;SDS011;13440;50.860;13.662;2022-11-09T10:29:49;9.23;;;5.95;;
25163;SDS011;13440;50.860;13.662;2022-11-09T10:32:15;8.30;;;5.97;;
25163;SDS011;13440;50.860;13.662;2022-11-09T10:34:54;10.48;;;5.93;;
25163;SDS011;13440;50.860;13.662;2022-11-09T10:39:49;7.57;;;5.40;;
25163;SDS011;13440;50.860;13.662;2022-11-09T10:42:34;9.30;;;6.30;;
25163;SDS011;13440;50.860;13.662;2022-11-09T10:45:31;7.57;;;5.32;;
25163;SDS011;13440;50.860;13.662;2022-11-09T10:48:24;8.63;;;5.50;;
25163;SDS011;13440;50.860;13.662;2022-11-09T10:54:19;9.93;;;5.93;;
25163;SDS011;13440;50.860;13.662;2022-11-09T10:59:55;7.55;;;5.47;;
25163;SDS011;13440;50.860;13.662;2022-11-09T11:02:41;7.60;;;6.07;;
25163;SDS011;13440;50.860;13.662;2022-11-09T11:05:26;8.77;;;5.78;;
25163;SDS011;13440;50.860;13.662;2022-11-09T11:08:19;8.15;;;6.30;;
25163;SDS011;13440;50.860;13.662;2022-11-09T11:11:23;8.18;;;6.00;;
25163;SDS011;13440;50.860;13.662;2022-11-09T11:16:52;8.23;;;6.40;;
25163;SDS011;13440;50.860;13.662;2022-11-09T11:19:37;8.48;;;6.70;;
25163;SDS011;13440;50.860;13.662;2022-11-09T11:22:22;10.00;;;6.95;;
25163;SDS011;13440;50.860;13.662;2022-11-09T11:25:50;9.18;;;6.40;;
25163;SDS011;13440;50.860;13.662;2022-11-09T11:28:17;10.63;;;6.95;;
25163;SDS011;13440;50.860;13.662;2022-11-09T11:31:06;10.02;;;7.40;;
25163;SDS011;13440;50.860;13.662;2022-11-09T11:33:54;8.90;;;6.43;;
25163;SDS011;13440;50.860;13.662;2022-11-09T11:36:40;9.07;;;6.60;;
25163;SDS011;13440;50.860;13.662;2022-11-09T11:42:36;9.43;;;7.20;;
25163;SDS011;13440;50.860;13.662;2022-11-09T11:45:28;9.85;;;7.18;;
25163;SDS011;13440;50.860;13.662;2022-11-09T11:48:42;13.85;;;8.48;;
25163;SDS011;13440;50.860;13.662;2022-11-09T12:00:40;14.75;;;10.23;;
25163;SDS011;13440;50.860;13.662;2022-11-09T12:03:37;16.52;;;10.48;;
25163;SDS011;13440;50.860;13.662;2022-11-09T12:09:25;17.30;;;10.60;;
25163;SDS011;13440;50.860;13.662;2022-11-09T12:12:16;15.95;;;10.13;;
25163;SDS011;13440;50.860;13.662;2022-11-09T12:15:22;16.92;;;11.15;;
25163;SDS011;13440;50.860;13.662;2022-11-09T12:21:08;17.73;;;11.85;;
25163;SDS011;13440;50.860;13.662;2022-11-09T12:32:54;18.67;;;11.52;;
25163;SDS011;13440;50.860;13.662;2022-11-09T12:35:40;18.23;;;12.38;;
25163;SDS011;13440;50.860;13.662;2022-11-09T12:38:31;18.20;;;11.70;;
25163;SDS011;13440;50.860;13.662;2022-11-09T12:41:17;16.48;;;11.90;;
25163;SDS011;13440;50.860;13.662;2022-11-09T12:44:03;15.25;;;10.73;;
25163;SDS011;13440;50.860;13.662;2022-11-09T12:46:53;18.75;;;12.25;;
25163;SDS011;13440;50.860;13.662;2022-11-09T12:49:39;19.00;;;12.27;;
25163;SDS011;13440;50.860;13.662;2022-11-09T12:52:24;21.27;;;13.90;;
25163;SDS011;13440;50.860;13.662;2022-11-09T12:55:13;23.58;;;13.43;;
25163;SDS011;13440;50.860;13.662;2022-11-09T12:57:58;18.92;;;12.77;;
25163;SDS011;13440;50.860;13.662;2022-11-09T13:03:27;20.05;;;13.23;;
25163;SDS011;13440;50.860;13.662;2022-11-09T13:09:06;19.92;;;13.18;;
25163;SDS011;13440;50.860;13.662;2022-11-09T13:11:51;18.13;;;11.68;;
25163;SDS011;13440;50.860;13.662;2022-11-09T13:14:36;19.42;;;12.05;;
25163;SDS011;13440;50.860;13.662;2022-11-09T13:23:30;21.00;;;12.75;;
25163;SDS011;13440;50.860;13.662;2022-11-09T13:46:22;21.58;;;13.85;;
25163;SDS011;13440;50.860;13.662;2022-11-09T13:55:29;17.27;;;12.07;;
25163;SDS011;13440;50.860;13.662;2022-11-09T13:58:20;16.80;;;11.38;;
25163;SDS011;13440;50.860;13.662;2022-11-09T14:01:23;15.90;;;11.48;;
25163;SDS011;13440;50.860;13.662;2022-11-09T14:04:17;15.77;;;11.85;;
25163;SDS011;13440;50.860;13.662;2022-11-09T14:07:05;16.13;;;11.75;;
25163;SDS011;13440;50.860;13.662;2022-11-09T14:15:51;17.77;;;12.88;;
25163;SDS011;13440;50.860;13.662;2022-11-09T14:21:39;18.70;;;12.67;;
25163;SDS011;13440;50.860;13.662;2022-11-09T14:24:28;16.83;;;12.55;;
25163;SDS011;13440;50.860;13.662;2022-11-09T14:27:16;20.67;;;12.45;;
25163;SDS011;13440;50.860;13.662;2022-11-09T14:30:01;16.70;;;12.10;;
25163;SDS011;13440;50.860;13.662;2022-11-09T14:32:49;16.37;;;11.73;;
25163;SDS011;13440;50.860;13.662;2022-11-09T14:35:34;17.20;;;11.88;;
25163;SDS011;13440;50.860;13.662;2022-11-09T14:38:22;18.35;;;11.93;;
25163;SDS011;13440;50.860;13.662;2022-11-09T14:41:16;16.00;;;12.07;;
25163;SDS011;13440;50.860;13.662;2022-11-09T14:44:01;23.10;;;14.18;;
25163;SDS011;13440;50.860;13.662;2022-11-09T14:46:45;21.98;;;16.20;;
25163;SDS011;13440;50.860;13.662;2022-11-09T14:49:34;17.67;;;12.25;;
25163;SDS011;13440;50.860;13.662;2022-11-09T14:52:19;16.80;;;12.05;;
25163;SDS011;13440;50.860;13.662;2022-11-09T14:55:03;18.80;;;12.57;;
25163;SDS011;13440;50.860;13.662;2022-11-09T14:57:47;18.63;;;13.63;;
25163;SDS011;13440;50.860;13.662;2022-11-09T15:00:32;18.23;;;13.70;;
25163;SDS011;13440;50.860;13.662;2022-11-09T15:03:24;19.77;;;14.18;;
25163;SDS011;13440;50.860;13.662;2022-11-09T15:06:12;18.45;;;14.23;;
25163;SDS011;13440;50.860;13.662;2022-11-09T15:09:03;19.70;;;13.98;;
25163;SDS011;13440;50.860;13.662;2022-11-09T15:11:48;19.05;;;14.23;;
25163;SDS011;13440;50.860;13.662;2022-11-09T15:14:33;18.10;;;13.63;;
25163;SDS011;13440;50.860;13.662;2022-11-09T15:17:20;16.02;;;12.73;;
25163;SDS011;13440;50.860;13.662;2022-11-09T15:22:57;19.52;;;12.80;;
25163;SDS011;13440;50.860;13.662;2022-11-09T15:28:27;25.33;;;18.15;;
25163;SDS011;13440;50.860;13.662;2022-11-09T15:31:12;23.67;;;17.27;;
25163;SDS011;13440;50.860;13.662;2022-11-09T15:33:58;19.55;;;14.27;;
25163;SDS011;13440;50.860;13.662;2022-11-09T15:36:42;19.30;;;14.88;;
25163;SDS011;13440;50.860;13.662;2022-11-09T15:39:26;19.10;;;13.82;;
25163;SDS011;13440;50.860;13.662;2022-11-09T15:42:10;18.05;;;13.38;;
25163;SDS011;13440;50.860;13.662;2022-11-09T15:44:55;19.00;;;14.18;;
25163;SDS011;13440;50.860;13.662;2022-11-09T15:47:39;19.30;;;14.45;;
25163;SDS011;13440;50.860;13.662;2022-11-09T15:50:24;18.45;;;13.38;;
25163;SDS011;13440;50.860;13.662;2022-11-09T15:53:08;20.58;;;14.70;;
25163;SDS011;13440;50.860;13.662;2022-11-09T15:55:53;19.67;;;14.07;;
25163;SDS011;13440;50.860;13.662;2022-11-09T15:58:38;17.35;;;13.73;;
25163;SDS011;13440;50.860;13.662;2022-11-09T16:01:21;21.75;;;14.63;;
25163;SDS011;13440;50.860;13.662;2022-11-09T16:04:05;22.52;;;13.77;;
25163;SDS011;13440;50.860;13.662;2022-11-09T16:06:49;18.03;;;13.87;;
25163;SDS011;13440;50.860;13.662;2022-11-09T16:09:33;24.20;;;16.40;;
25163;SDS011;13440;50.860;13.662;2022-11-09T16:12:21;17.95;;;13.80;;
25163;SDS011;13440;50.860;13.662;2022-11-09T16:15:05;20.83;;;13.57;;
25163;SDS011;13440;50.860;13.662;2022-11-09T16:17:49;20.80;;;13.38;;
25163;SDS011;13440;50.860;13.662;2022-11-09T16:20:33;22.38;;;15.55;;
25163;SDS011;13440;50.860;13.662;2022-11-09T16:23:17;18.50;;;13.45;;
25163;SDS011;13440;50.860;13.662;2022-11-09T16:26:05;20.65;;;15.38;;
25163;SDS011;13440;50.860;13.662;2022-11-09T16:28:49;19.40;;;14.25;;
25163;SDS011;13440;50.860;13.662;2022-11-09T16:31:33;19.27;;;14.05;;
25163;SDS011;13440;50.860;13.662;2022-11-09T16:34:17;18.17;;;13.57;;